Time;durP1;ratioP1;P1;durP2;ratioP2;P2;SDS_P1;SDS_P2;PMS_P1;PMS_P2;Temp;Humidity;BMP_temperature;BMP_pressure;BME280_temperature;BME280_humidity;BME280_pressure;Samples;Min_cycle;Max_cycle;Signal;HPM_P1;HPM_P2
2022/08/01 00:01:53;;;;;;;18.27;2.17;;;17.40;99.90;;;;;;4997301;28;20397;-55
2022/08/01 00:04:18;;;;;;;9.18;2.38;;;17.50;99.90;;;;;;4995074;28;20026;-56
2022/08/01 00:06:44;;;;;;;12.38;2.80;;;17.60;99.90;;;;;;4990660;28;20490;-57
2022/08/01 00:09:10;;;;;;;9.40;1.92;;;17.70;99.90;;;;;;4991046;28;20026;-55
2022/08/01 00:11:36;;;;;;;11.63;2.30;;;17.70;99.90;;;;;;4993265;28;20390;-57
2022/08/01 00:14:01;;;;;;;8.30;2.20;;;17.80;99.90;;;;;;4996275;28;20034;-56
2022/08/01 00:16:27;;;;;;;8.77;2.00;;;17.90;99.90;;;;;;4992604;28;20038;-56
2022/08/01 00:18:53;;;;;;;10.88;3.20;;;18.00;99.90;;;;;;4990381;28;20037;-57
2022/08/01 00:21:19;;;;;;;12.43;2.72;;;18.10;99.90;;;;;;4992667;28;20046;-55
2022/08/01 00:23:45;;;;;;;11.75;2.55;;;18.10;99.90;;;;;;4993167;28;20033;-56
2022/08/01 00:26:12;;;;;;;11.35;2.70;;;18.00;99.90;;;;;;4988898;28;20061;-56
2022/08/01 00:28:38;;;;;;;11.88;2.85;;;17.90;99.90;;;;;;4994912;28;20038;-55
2022/08/01 00:31:03;;;;;;;16.05;2.72;;;17.70;99.90;;;;;;4994214;28;20037;-57
2022/08/01 00:33:29;;;;;;;13.10;2.35;;;17.70;99.90;;;;;;4989998;28;20430;-57
2022/08/01 00:35:55;;;;;;;13.25;3.05;;;17.60;99.90;;;;;;4997247;28;20022;-56
2022/08/01 00:38:21;;;;;;;17.35;3.40;;;17.50;99.90;;;;;;4994656;28;20038;-55
2022/08/01 00:40:47;;;;;;;9.27;2.60;;;17.50;99.90;;;;;;4995347;28;20093;-57
2022/08/01 00:43:13;;;;;;;14.60;3.03;;;17.40;99.90;;;;;;4993082;28;20161;-53
2022/08/01 00:45:38;;;;;;;16.08;2.88;;;17.40;99.90;;;;;;5002180;28;20036;-55
2022/08/01 00:48:04;;;;;;;10.95;3.20;;;17.40;99.90;;;;;;4989013;28;20019;-55
2022/08/01 00:50:30;;;;;;;13.20;2.80;;;17.40;99.90;;;;;;4990128;28;20057;-55
2022/08/01 00:52:58;;;;;;;20.40;3.17;;;17.40;99.90;;;;;;4988890;28;20034;-57
2022/08/01 00:55:25;;;;;;;15.30;2.50;;;17.50;99.90;;;;;;5000955;28;20100;-55
2022/08/01 00:57:51;;;;;;;11.30;3.03;;;17.50;99.90;;;;;;4993540;28;20049;-55
2022/08/01 01:00:17;;;;;;;8.60;2.50;;;17.50;99.90;;;;;;4993426;28;20493;-55
2022/08/01 01:02:43;;;;;;;13.68;2.22;;;17.50;99.90;;;;;;4991814;28;20482;-57
2022/08/01 01:05:09;;;;;;;12.15;3.17;;;17.50;99.90;;;;;;4993885;28;20042;-57
2022/08/01 01:07:53;;;;;;;11.75;2.33;;;17.50;99.90;;;;;;4991325;28;20514;-57
2022/08/01 01:10:51;;;;;;;10.13;2.40;;;17.50;99.90;;;;;;4988876;28;20178;-56
2022/08/01 01:13:34;;;;;;;10.57;2.53;;;17.50;99.90;;;;;;4985145;28;20030;-56
2022/08/01 01:16:06;;;;;;;12.13;2.97;;;17.50;99.90;;;;;;4989564;28;20474;-57
2022/08/01 01:18:47;;;;;;;11.52;3.42;;;17.50;99.90;;;;;;4997265;28;20109;-55
2022/08/01 01:21:16;;;;;;;9.73;2.47;;;17.50;99.90;;;;;;4992834;28;20076;-55
2022/08/01 01:24:02;;;;;;;15.07;3.03;;;17.60;99.90;;;;;;4994712;28;20533;-57
2022/08/01 01:26:31;;;;;;;8.48;2.72;;;17.50;99.90;;;;;;4985338;28;21698;-55
2022/08/01 01:29:01;;;;;;;14.90;2.95;;;17.50;99.90;;;;;;4988892;28;20077;-56
2022/08/01 01:31:29;;;;;;;11.65;2.38;;;17.50;99.90;;;;;;4989519;28;20031;-56
2022/08/01 01:33:57;;;;;;;14.40;3.92;;;17.40;99.90;;;;;;4992040;28;20176;-56
2022/08/01 01:36:25;;;;;;;12.18;2.95;;;17.40;99.90;;;;;;4988625;28;20034;-56
2022/08/01 01:38:52;;;;;;;10.35;3.40;;;17.40;99.90;;;;;;4993523;28;20035;-56
2022/08/01 01:41:19;;;;;;;13.35;3.08;;;17.30;99.90;;;;;;4989159;28;20057;-57
2022/08/01 01:43:47;;;;;;;11.80;3.38;;;17.30;99.90;;;;;;4991361;28;20141;-56
2022/08/01 01:46:22;;;;;;;14.07;3.25;;;17.20;99.90;;;;;;4994055;28;20034;-55
2022/08/01 01:48:49;;;;;;;13.30;3.83;;;17.20;99.90;;;;;;4990159;28;20160;-54
2022/08/01 01:51:16;;;;;;;17.67;2.95;;;17.10;99.90;;;;;;5018189;28;20046;-55
2022/08/01 01:53:43;;;;;;;12.90;3.25;;;17.20;99.90;;;;;;4989702;28;20387;-57
2022/08/01 01:56:09;;;;;;;9.88;3.28;;;17.10;99.90;;;;;;4991468;28;20169;-56
2022/08/01 01:58:39;;;;;;;12.60;4.05;;;17.10;99.90;;;;;;4992062;28;20034;-56
2022/08/01 02:01:06;;;;;;;18.50;4.00;;;17.20;99.90;;;;;;4989776;28;20045;-56
2022/08/01 02:03:36;;;;;;;13.18;4.00;;;17.20;99.90;;;;;;4988084;28;20026;-56
2022/08/01 02:06:03;;;;;;;12.20;3.10;;;17.20;99.90;;;;;;4995151;28;20482;-56
2022/08/01 02:08:30;;;;;;;10.98;3.20;;;17.20;99.90;;;;;;4994029;28;20117;-56
2022/08/01 02:13:43;;;;;;;11.60;3.92;;;17.20;99.90;;;;;;4995109;28;20057;-58
2022/08/01 02:16:11;;;;;;;14.07;4.20;;;17.10;99.90;;;;;;5000049;28;20490;-57
2022/08/01 02:18:37;;;;;;;10.13;3.65;;;17.10;99.90;;;;;;4994641;28;20033;-57
2022/08/01 02:21:06;;;;;;;10.07;3.97;;;17.10;99.90;;;;;;4999173;28;20911;-56
2022/08/01 02:23:35;;;;;;;9.30;3.70;;;17.10;99.90;;;;;;4989241;28;20462;-56
2022/08/01 02:26:04;;;;;;;12.60;3.50;;;17.00;99.90;;;;;;5000560;28;20030;-56
2022/08/01 02:28:40;;;;;;;7.68;3.00;;;17.00;99.90;;;;;;4997509;28;20138;-55
2022/08/01 02:31:10;;;;;;;11.75;3.30;;;17.00;99.90;;;;;;4986589;28;20034;-56
2022/08/01 02:33:43;;;;;;;10.63;3.40;;;17.00;99.90;;;;;;4990307;28;20490;-55
2022/08/01 02:36:10;;;;;;;12.10;3.15;;;17.10;99.90;;;;;;4994003;28;20034;-55
2022/08/01 02:38:41;;;;;;;13.88;3.50;;;17.10;99.90;;;;;;5001969;28;20474;-56
2022/08/01 02:41:10;;;;;;;15.35;3.47;;;17.20;99.90;;;;;;4996228;28;20062;-57
2022/08/01 02:43:43;;;;;;;12.30;3.40;;;17.30;99.90;;;;;;4999573;28;20081;-56
2022/08/01 02:46:16;;;;;;;7.60;2.90;;;17.40;99.90;;;;;;5001399;28;20048;-56
2022/08/01 02:48:43;;;;;;;13.18;3.63;;;17.40;99.90;;;;;;4996096;28;20014;-55
2022/08/01 02:51:11;;;;;;;13.50;3.90;;;17.40;99.90;;;;;;5000421;28;20458;-57
2022/08/01 02:53:40;;;;;;;10.02;3.40;;;17.30;99.90;;;;;;4997073;28;20026;-56
2022/08/01 02:56:08;;;;;;;10.10;3.42;;;17.30;99.90;;;;;;4996137;28;20034;-56
2022/08/01 02:58:37;;;;;;;11.18;3.97;;;17.40;99.90;;;;;;4993100;28;20026;-55
2022/08/01 03:01:05;;;;;;;8.65;3.22;;;17.40;99.90;;;;;;4996894;28;20034;-56
2022/08/01 03:03:33;;;;;;;7.45;2.60;;;17.30;99.90;;;;;;4998490;28;20026;-56
2022/08/01 03:06:01;;;;;;;7.90;3.30;;;17.30;99.90;;;;;;4996876;28;20074;-56
2022/08/01 03:08:29;;;;;;;15.15;4.30;;;17.30;99.90;;;;;;4994367;28;20034;-56
2022/08/01 03:10:56;;;;;;;9.02;3.05;;;17.40;99.90;;;;;;4997524;28;20548;-55
2022/08/01 03:13:25;;;;;;;12.90;3.22;;;17.40;99.90;;;;;;5000441;28;20109;-56
2022/08/01 03:15:54;;;;;;;10.40;3.28;;;17.40;99.90;;;;;;4992719;28;20173;-56
2022/08/01 03:18:22;;;;;;;11.30;3.08;;;17.50;99.90;;;;;;5005581;28;20448;-56
2022/08/01 03:20:49;;;;;;;10.93;3.70;;;17.50;99.90;;;;;;5001501;28;20030;-55
2022/08/01 03:23:16;;;;;;;9.45;4.18;;;17.50;99.90;;;;;;4995113;28;20027;-56
2022/08/01 03:25:47;;;;;;;7.97;3.40;;;17.50;99.90;;;;;;4994286;28;20413;-58
2022/08/01 03:28:16;;;;;;;13.20;3.70;;;17.60;99.90;;;;;;4991245;28;20360;-56
2022/08/01 03:30:42;;;;;;;13.45;3.30;;;17.60;99.90;;;;;;4999710;28;20031;-56
2022/08/01 03:33:09;;;;;;;12.25;3.78;;;17.60;99.90;;;;;;4993555;28;20033;-57
2022/08/01 03:35:39;;;;;;;10.65;4.53;;;17.70;99.90;;;;;;4999573;28;20035;-56
2022/08/01 03:38:07;;;;;;;5.72;2.55;;;17.70;99.90;;;;;;4999854;28;20490;-56
2022/08/01 03:40:40;;;;;;;5.90;2.45;;;17.80;99.90;;;;;;4996501;28;20025;-56
2022/08/01 03:43:15;;;;;;;10.65;3.45;;;17.90;99.90;;;;;;4992357;28;20088;-55
2022/08/01 03:45:50;;;;;;;10.23;3.45;;;17.90;99.90;;;;;;4997259;28;20492;-56
2022/08/01 03:48:27;;;;;;;9.30;3.33;;;17.90;99.90;;;;;;4994862;28;20558;-55
2022/08/01 03:50:53;;;;;;;8.05;3.75;;;17.90;99.90;;;;;;5000749;28;20058;-57
2022/08/01 03:53:22;;;;;;;10.90;4.05;;;17.90;99.90;;;;;;4996369;28;20034;-56
2022/08/01 03:55:50;;;;;;;14.73;3.40;;;17.90;99.90;;;;;;4995256;28;20073;-56
2022/08/01 03:58:17;;;;;;;10.38;4.05;;;18.00;99.90;;;;;;5001661;28;20947;-56
2022/08/01 04:00:44;;;;;;;8.13;4.18;;;18.00;99.90;;;;;;4990740;28;20509;-56
2022/08/01 04:03:11;;;;;;;11.88;4.55;;;18.00;99.90;;;;;;4992301;28;20037;-56
2022/08/01 04:05:40;;;;;;;7.60;3.22;;;18.00;99.90;;;;;;4990881;28;20034;-56
2022/08/01 04:08:05;;;;;;;9.65;4.38;;;18.00;99.90;;;;;;4990435;28;20030;-56
2022/08/01 04:10:31;;;;;;;10.57;4.18;;;18.10;99.90;;;;;;4996407;28;20026;-55
2022/08/01 04:12:57;;;;;;;10.52;4.30;;;18.10;99.90;;;;;;4992113;28;20371;-56
2022/08/01 04:15:23;;;;;;;11.52;4.25;;;18.10;99.90;;;;;;4992963;28;20030;-54
2022/08/01 04:17:49;;;;;;;10.50;4.68;;;18.10;99.90;;;;;;4995857;28;20026;-54
2022/08/01 04:20:15;;;;;;;10.68;4.35;;;18.10;99.90;;;;;;4989105;28;20030;-55
2022/08/01 04:22:41;;;;;;;11.57;5.07;;;18.10;99.90;;;;;;4991134;28;20031;-54
2022/08/01 04:25:15;;;;;;;10.30;5.75;;;18.10;99.90;;;;;;4995811;28;20029;-55
2022/08/01 04:27:45;;;;;;;9.02;4.80;;;18.10;99.90;;;;;;4996937;28;20032;-56
2022/08/01 04:30:12;;;;;;;11.23;4.55;;;18.10;99.90;;;;;;4991378;28;20034;-55
2022/08/01 04:32:41;;;;;;;8.32;5.10;;;18.10;99.90;;;;;;4991172;28;20035;-55
2022/08/01 04:35:11;;;;;;;14.77;5.47;;;18.10;99.90;;;;;;4990833;28;20048;-56
2022/08/01 04:37:38;;;;;;;17.48;5.88;;;18.10;99.90;;;;;;5002043;28;20057;-56
2022/08/01 04:40:06;;;;;;;12.95;5.82;;;18.20;99.90;;;;;;4993009;28;20096;-56
2022/08/01 04:42:33;;;;;;;10.75;5.30;;;18.20;99.90;;;;;;4999278;28;20057;-55
2022/08/01 04:44:59;;;;;;;12.00;4.95;;;18.20;99.90;;;;;;5004427;28;20050;-58
2022/08/01 04:47:26;;;;;;;11.38;5.90;;;18.20;99.90;;;;;;4998525;28;20030;-55
2022/08/01 04:49:52;;;;;;;9.10;5.70;;;18.20;99.90;;;;;;4999513;28;20450;-56
2022/08/01 04:52:18;;;;;;;11.23;6.00;;;18.30;99.90;;;;;;4989785;28;20036;-55
2022/08/01 04:54:43;;;;;;;8.65;5.38;;;18.30;99.90;;;;;;4985080;28;20109;-56
2022/08/01 04:57:09;;;;;;;9.60;4.45;;;18.40;99.90;;;;;;4999580;28;20025;-56
2022/08/01 04:59:41;;;;;;;8.70;4.68;;;18.40;99.90;;;;;;4993761;28;20435;-57
2022/08/01 05:02:12;;;;;;;12.88;5.13;;;18.50;99.90;;;;;;5002028;28;20030;-57
2022/08/01 05:04:39;;;;;;;9.20;4.73;;;18.50;99.90;;;;;;4990713;28;20037;-57
2022/08/01 05:07:06;;;;;;;11.25;4.93;;;18.50;99.90;;;;;;4994849;28;20391;-57
2022/08/01 05:09:32;;;;;;;9.15;4.55;;;18.50;99.90;;;;;;5006742;28;20026;-57
2022/08/01 05:12:00;;;;;;;7.55;4.93;;;18.60;99.90;;;;;;5006621;28;20088;-57
2022/08/01 05:14:26;;;;;;;11.60;5.68;;;18.60;99.90;;;;;;4996874;28;20014;-56
2022/08/01 05:16:52;;;;;;;10.88;4.35;;;18.60;99.90;;;;;;5001946;28;20028;-57
2022/08/01 05:19:18;;;;;;;10.68;5.30;;;18.60;99.90;;;;;;4989651;28;20071;-56
2022/08/01 05:21:44;;;;;;;11.20;3.70;;;18.50;99.90;;;;;;4989979;28;20039;-55
2022/08/01 05:24:10;;;;;;;17.35;5.80;;;18.50;99.90;;;;;;4994102;28;20023;-56
2022/08/01 05:26:36;;;;;;;10.27;5.47;;;18.50;99.90;;;;;;4985398;28;20033;-55
2022/08/01 05:29:03;;;;;;;12.07;6.00;;;18.60;99.90;;;;;;4990926;28;20030;-57
2022/08/01 05:31:29;;;;;;;11.60;5.20;;;18.60;99.90;;;;;;4998116;28;20041;-56
2022/08/01 05:33:54;;;;;;;11.35;4.65;;;18.70;99.90;;;;;;4989694;28;20026;-56
2022/08/01 05:36:20;;;;;;;16.27;5.07;;;18.70;99.90;;;;;;4991662;28;20101;-56
2022/08/01 05:38:46;;;;;;;14.00;4.93;;;18.80;99.90;;;;;;4996534;28;20025;-56
2022/08/01 05:41:12;;;;;;;8.98;5.00;;;18.80;99.90;;;;;;4985205;28;20050;-55
2022/08/01 05:43:37;;;;;;;8.10;4.32;;;18.90;99.90;;;;;;4994081;28;20053;-55
2022/08/01 05:46:03;;;;;;;7.07;3.80;;;18.90;99.90;;;;;;4992374;28;20030;-57
2022/08/01 05:48:30;;;;;;;9.30;4.47;;;18.90;99.90;;;;;;4989738;28;20033;-57
2022/08/01 05:50:56;;;;;;;11.23;3.90;;;18.90;99.90;;;;;;4988480;28;20026;-56
2022/08/01 05:53:22;;;;;;;6.68;3.17;;;18.90;99.90;;;;;;4995074;28;20473;-56
2022/08/01 05:55:47;;;;;;;6.93;3.08;;;18.90;99.90;;;;;;4988083;28;20062;-58
2022/08/01 05:58:13;;;;;;;8.48;2.60;;;18.80;99.90;;;;;;4998161;28;20022;-56
2022/08/01 06:00:39;;;;;;;6.25;3.10;;;18.90;99.90;;;;;;4991249;28;20465;-54
2022/08/01 06:03:11;;;;;;;13.15;3.53;;;19.00;99.90;;;;;;4986962;28;20038;-55
2022/08/01 06:05:37;;;;;;;8.75;3.25;;;19.00;99.90;;;;;;4988211;28;20041;-57
2022/08/01 06:08:03;;;;;;;6.68;2.70;;;19.10;99.90;;;;;;4990924;28;20058;-56
2022/08/01 06:10:30;;;;;;;6.07;2.90;;;19.20;99.90;;;;;;4989523;28;20030;-56
2022/08/01 06:12:56;;;;;;;8.20;2.97;;;19.40;99.90;;;;;;4993370;28;20475;-57
2022/08/01 06:15:21;;;;;;;8.82;2.72;;;19.50;99.90;;;;;;4993075;28;20391;-54
2022/08/01 06:17:48;;;;;;;10.88;3.47;;;19.60;99.90;;;;;;4998465;28;20034;-57
2022/08/01 06:20:14;;;;;;;9.10;3.53;;;19.60;99.90;;;;;;4993127;28;20503;-56
2022/08/01 06:22:39;;;;;;;6.75;2.70;;;19.70;99.90;;;;;;5000932;28;20104;-56
2022/08/01 06:25:06;;;;;;;10.70;2.88;;;20.00;99.90;;;;;;4991655;28;20014;-56
2022/08/01 06:27:35;;;;;;;5.18;3.03;;;20.00;99.90;;;;;;4994001;28;20034;-56
2022/08/01 06:30:01;;;;;;;8.10;2.28;;;20.10;99.90;;;;;;4985997;28;20073;-56
2022/08/01 06:32:26;;;;;;;4.80;1.88;;;20.10;99.90;;;;;;4992294;28;20053;-55
2022/08/01 06:34:52;;;;;;;4.30;2.28;;;20.00;99.90;;;;;;4996411;28;20031;-56
2022/08/01 06:37:19;;;;;;;6.13;2.70;;;19.90;99.90;;;;;;4991375;28;20031;-57
2022/08/01 06:39:44;;;;;;;8.93;2.47;;;19.90;99.90;;;;;;4989059;28;20042;-58
2022/08/01 06:42:17;;;;;;;4.07;2.20;;;19.90;99.90;;;;;;4984774;28;20038;-56
2022/08/01 06:44:42;;;;;;;6.97;1.95;;;19.90;99.90;;;;;;4994582;28;20042;-56
2022/08/01 06:47:08;;;;;;;6.20;3.10;;;19.90;99.90;;;;;;4991251;28;20112;-56
2022/08/01 06:49:34;;;;;;;7.00;1.80;;;19.90;99.90;;;;;;4992415;28;20030;-55
2022/08/01 06:52:00;;;;;;;8.52;1.98;;;19.90;99.90;;;;;;4994400;28;20275;-57
2022/08/01 06:54:26;;;;;;;6.95;1.90;;;19.90;99.90;;;;;;4997435;28;20509;-57
2022/08/01 06:56:51;;;;;;;6.35;2.20;;;19.90;99.90;;;;;;4990915;28;20030;-57
2022/08/01 06:59:18;;;;;;;5.10;1.55;;;19.80;99.90;;;;;;4990731;28;20044;-56
2022/08/01 07:01:44;;;;;;;5.95;2.65;;;19.80;99.90;;;;;;5002668;28;20038;-57
2022/08/01 07:04:10;;;;;;;6.60;2.47;;;19.90;99.90;;;;;;5011179;28;20422;-57
2022/08/01 07:06:35;;;;;;;6.18;1.85;;;19.90;99.90;;;;;;4996281;28;20045;-57
2022/08/01 07:09:02;;;;;;;10.63;1.98;;;20.00;99.90;;;;;;4999416;28;20018;-57
2022/08/01 07:11:27;;;;;;;4.47;1.77;;;20.10;99.90;;;;;;4994762;28;20025;-57
2022/08/01 07:13:53;;;;;;;4.13;2.47;;;20.00;99.90;;;;;;4999305;28;20363;-57
2022/08/01 07:16:25;;;;;;;5.28;1.83;;;20.00;99.90;;;;;;4990479;28;20042;-57
2022/08/01 07:18:51;;;;;;;4.32;1.60;;;20.10;99.90;;;;;;4992863;28;20102;-57
2022/08/01 07:21:17;;;;;;;5.25;1.75;;;20.10;99.90;;;;;;4996889;28;20726;-57
2022/08/01 07:23:43;;;;;;;5.55;1.73;;;20.10;99.90;;;;;;5004886;28;20394;-57
2022/08/01 07:26:12;;;;;;;5.57;1.85;;;19.90;99.90;;;;;;4992723;28;20037;-57
2022/08/01 07:28:38;;;;;;;10.75;2.50;;;19.90;99.90;;;;;;4991728;28;20023;-58
2022/08/01 07:31:09;;;;;;;4.60;1.70;;;20.00;99.90;;;;;;4993265;28;20025;-58
2022/08/01 07:33:36;;;;;;;5.00;1.90;;;20.00;99.90;;;;;;4987166;28;20026;-56
2022/08/01 07:36:03;;;;;;;6.60;1.55;;;20.00;99.90;;;;;;4992990;28;20131;-58
2022/08/01 07:38:29;;;;;;;5.78;1.80;;;20.00;99.90;;;;;;4993937;28;20498;-58
2022/08/01 07:40:55;;;;;;;5.18;2.00;;;20.00;99.90;;;;;;4998171;28;20405;-58
2022/08/01 07:43:22;;;;;;;7.25;1.88;;;20.00;99.90;;;;;;4993546;28;20042;-57
2022/08/01 07:45:48;;;;;;;6.68;1.65;;;20.10;99.90;;;;;;4994404;28;20035;-57
2022/08/01 07:48:14;;;;;;;5.43;1.55;;;20.10;99.90;;;;;;4992004;28;20030;-60
2022/08/01 07:50:40;;;;;;;2.85;1.20;;;20.10;99.90;;;;;;4991698;28;20142;-58
2022/08/01 07:53:10;;;;;;;2.42;1.40;;;20.10;99.90;;;;;;5004995;28;20026;-58
2022/08/01 07:55:36;;;;;;;5.60;1.55;;;20.30;99.90;;;;;;4992776;28;20048;-58
2022/08/01 07:58:01;;;;;;;5.25;1.35;;;20.40;99.90;;;;;;4991152;28;20101;-58
2022/08/01 08:00:28;;;;;;;5.97;1.60;;;20.40;99.90;;;;;;4988202;28;20042;-58
2022/08/01 08:02:58;;;;;;;5.70;1.52;;;20.50;99.90;;;;;;4990374;28;20026;-57
2022/08/01 08:05:29;;;;;;;4.68;1.00;;;20.50;99.90;;;;;;5005276;28;20023;-57
2022/08/01 08:07:55;;;;;;;4.85;1.15;;;20.50;99.90;;;;;;4993963;28;20038;-57
2022/08/01 08:10:24;;;;;;;3.25;1.33;;;20.50;99.90;;;;;;4990328;28;20084;-58
2022/08/01 08:12:51;;;;;;;5.78;1.35;;;20.50;99.90;;;;;;4994331;28;20125;-58
2022/08/01 08:15:17;;;;;;;3.30;1.35;;;20.50;99.90;;;;;;4988612;28;20045;-58
2022/08/01 08:17:43;;;;;;;1.17;0.80;;;20.50;99.90;;;;;;4994229;28;20023;-58
2022/08/01 08:20:09;;;;;;;7.20;1.40;;;20.40;99.90;;;;;;4990347;28;20035;-58
2022/08/01 08:22:35;;;;;;;2.72;1.05;;;20.50;99.90;;;;;;4991964;28;20479;-58
2022/08/01 08:25:02;;;;;;;1.40;0.93;;;20.50;99.90;;;;;;4985234;28;20019;-58
2022/08/01 08:27:27;;;;;;;4.18;0.93;;;20.60;99.90;;;;;;4990351;28;20069;-58
2022/08/01 08:29:53;;;;;;;4.18;1.10;;;20.50;99.90;;;;;;4993953;28;20082;-58
2022/08/01 08:32:19;;;;;;;1.38;1.10;;;20.70;99.90;;;;;;4988485;28;20030;-58
2022/08/01 08:34:45;;;;;;;1.58;0.80;;;20.80;99.90;;;;;;4991905;28;20113;-57
2022/08/01 08:37:11;;;;;;;4.72;1.45;;;20.80;99.90;;;;;;4996732;28;20157;-57
2022/08/01 08:39:38;;;;;;;7.68;1.38;;;20.90;99.90;;;;;;4989376;28;20117;-57
2022/08/01 08:42:07;;;;;;;3.03;1.05;;;20.90;99.90;;;;;;4995562;28;20029;-57
2022/08/01 08:44:33;;;;;;;3.40;1.35;;;21.00;99.90;;;;;;4995041;28;20037;-57
2022/08/01 08:47:04;;;;;;;1.92;1.20;;;21.00;99.90;;;;;;4989396;28;20046;-58
2022/08/01 08:49:32;;;;;;;2.13;1.17;;;21.20;99.90;;;;;;4988885;28;20053;-58
2022/08/01 08:52:02;;;;;;;4.82;1.10;;;21.20;99.90;;;;;;4989267;28;20033;-57
2022/08/01 08:54:29;;;;;;;4.43;1.52;;;21.30;99.90;;;;;;4997489;28;20024;-57
2022/08/01 08:56:59;;;;;;;2.42;1.30;;;21.30;99.90;;;;;;4996746;28;20149;-58
2022/08/01 08:59:25;;;;;;;2.88;1.15;;;21.40;99.90;;;;;;4983687;28;21013;-58
2022/08/01 09:01:52;;;;;;;2.38;1.20;;;21.30;99.90;;;;;;4997473;28;20035;-57
2022/08/01 09:04:17;;;;;;;4.90;1.75;;;21.30;99.90;;;;;;4988218;28;20088;-57
2022/08/01 09:06:50;;;;;;;2.30;1.10;;;21.30;99.90;;;;;;4988672;28;20030;-57
2022/08/01 09:09:16;;;;;;;6.05;1.80;;;21.40;99.90;;;;;;4988129;28;20046;-57
2022/08/01 09:11:42;;;;;;;5.18;2.00;;;21.40;99.90;;;;;;4991142;28;20081;-58
2022/08/01 09:14:22;;;;;;;5.40;1.40;;;21.40;99.90;;;;;;4989685;28;20053;-56
2022/08/01 09:17:00;;;;;;;3.55;1.80;;;21.30;99.90;;;;;;4989705;28;20034;-58
2022/08/01 09:19:38;;;;;;;5.07;1.23;;;21.20;99.90;;;;;;4989191;28;20045;-58
2022/08/01 09:22:07;;;;;;;3.33;1.20;;;21.10;99.90;;;;;;4988059;28;20042;-57
2022/08/01 09:24:34;;;;;;;9.23;2.05;;;21.40;99.90;;;;;;4994153;28;20036;-57
2022/08/01 09:27:01;;;;;;;3.30;1.63;;;21.80;99.90;;;;;;4986711;28;20061;-57
2022/08/01 09:29:34;;;;;;;2.92;1.33;;;22.10;99.90;;;;;;4990898;28;20026;-57
2022/08/01 09:32:05;;;;;;;3.83;1.30;;;22.30;99.90;;;;;;5003418;28;20030;-57
2022/08/01 09:34:34;;;;;;;6.43;1.55;;;22.40;99.90;;;;;;4997837;28;20100;-57
2022/08/01 09:37:02;;;;;;;2.78;1.25;;;22.70;99.90;;;;;;4996416;28;20034;-57
2022/08/01 09:39:36;;;;;;;4.20;1.52;;;22.70;99.90;;;;;;4994231;28;20479;-57
2022/08/01 09:42:22;;;;;;;2.67;1.20;;;22.90;99.90;;;;;;4988278;28;20088;-56
2022/08/01 09:44:49;;;;;;;4.45;1.95;;;23.00;99.90;;;;;;4994192;28;20069;-56
2022/08/01 09:47:18;;;;;;;2.75;1.35;;;23.00;99.90;;;;;;4993665;28;20125;-60
2022/08/01 09:49:45;;;;;;;3.42;1.50;;;22.80;99.90;;;;;;4995942;28;20022;-57
2022/08/01 09:52:21;;;;;;;4.32;1.38;;;22.40;99.90;;;;;;4996645;28;20026;-58
2022/08/01 09:54:53;;;;;;;9.15;1.98;;;22.10;99.90;;;;;;4995451;28;20493;-58
2022/08/01 09:57:19;;;;;;;7.93;2.20;;;21.80;99.90;;;;;;4997528;28;20030;-58
2022/08/01 09:59:49;;;;;;;6.30;1.70;;;21.70;99.90;;;;;;5006232;28;20076;-58
2022/08/01 10:02:34;;;;;;;7.22;2.30;;;21.80;99.90;;;;;;4990247;28;20122;-58
2022/08/01 10:05:03;;;;;;;8.13;1.80;;;22.10;99.90;;;;;;4999932;28;20079;-59
2022/08/01 10:07:29;;;;;;;4.65;2.05;;;22.50;99.90;;;;;;4996309;28;20046;-58
2022/08/01 10:10:09;;;;;;;3.15;1.50;;;22.70;99.90;;;;;;4995990;28;20312;-59
2022/08/01 10:12:35;;;;;;;8.00;1.58;;;22.80;99.90;;;;;;4994322;28;20065;-62
2022/08/01 10:15:01;;;;;;;4.45;1.45;;;22.80;99.90;;;;;;4993599;28;20031;-58
2022/08/01 10:17:28;;;;;;;9.50;2.22;;;22.90;99.90;;;;;;5000718;28;20137;-58
2022/08/01 10:19:55;;;;;;;3.08;1.30;;;22.80;99.90;;;;;;4986860;28;20077;-58
2022/08/01 10:22:24;;;;;;;4.60;1.73;;;22.70;99.90;;;;;;4994554;28;20034;-57
2022/08/01 10:24:54;;;;;;;5.85;2.00;;;22.60;99.90;;;;;;5003551;28;20084;-58
2022/08/01 10:27:25;;;;;;;6.03;2.30;;;22.40;99.90;;;;;;4989160;28;20034;-57
2022/08/01 10:29:56;;;;;;;4.03;2.38;;;22.30;99.90;;;;;;4995415;28;20157;-57
2022/08/01 10:32:25;;;;;;;5.57;1.40;;;22.20;99.90;;;;;;4994096;28;20030;-58
2022/08/01 10:34:52;;;;;;;4.20;2.13;;;22.10;99.90;;;;;;4994098;28;20114;-57
2022/08/01 10:37:17;;;;;;;3.28;1.20;;;21.90;99.90;;;;;;5001676;28;20474;-57
2022/08/01 10:39:43;;;;;;;5.80;2.10;;;21.80;99.90;;;;;;4994853;28;20030;-59
2022/08/01 10:42:11;;;;;;;3.22;1.65;;;21.80;99.90;;;;;;4994853;28;20038;-57
2022/08/01 10:44:38;;;;;;;4.53;1.70;;;21.70;99.90;;;;;;4998182;28;20038;-57
2022/08/01 10:47:06;;;;;;;5.97;1.40;;;21.70;99.90;;;;;;4992344;28;20041;-58
2022/08/01 10:49:38;;;;;;;2.30;1.42;;;21.60;99.90;;;;;;4998786;28;20417;-58
2022/08/01 10:52:04;;;;;;;;;;;21.60;99.90;;;;;;4994199;28;20023;-59
2022/08/01 10:54:38;;;;;;;4.70;2.00;;;21.60;99.90;;;;;;4999015;28;20051;-58
2022/08/01 10:57:06;;;;;;;5.18;1.75;;;21.60;99.90;;;;;;5003508;28;20389;-58
2022/08/01 10:59:33;;;;;;;4.45;1.70;;;21.50;99.90;;;;;;4996206;28;20065;-58
2022/08/01 11:02:01;;;;;;;7.40;1.60;;;21.40;99.90;;;;;;4998118;28;20173;-58
2022/08/01 11:04:37;;;;;;;4.55;1.25;;;21.50;99.90;;;;;;4998346;28;20078;-58
2022/08/01 11:07:06;;;;;;;4.72;2.15;;;21.50;99.90;;;;;;4990106;28;20058;-58
2022/08/01 11:09:39;;;;;;;3.70;1.70;;;21.60;99.90;;;;;;4990472;28;20156;-57
2022/08/01 11:12:09;;;;;;;3.10;1.42;;;21.80;99.90;;;;;;4990975;28;20035;-57
2022/08/01 11:14:58;;;;;;;8.68;2.95;;;21.70;99.90;;;;;;4992341;28;20033;-57
2022/08/01 11:17:32;;;;;;;5.32;2.28;;;21.80;99.90;;;;;;4988644;28;20026;-57
2022/08/01 11:20:14;;;;;;;3.00;2.10;;;21.90;99.90;;;;;;4981687;28;20026;-57
2022/08/01 11:23:03;;;;;;;6.55;3.08;;;22.00;99.90;;;;;;4987989;28;20046;-58
2022/08/01 11:25:35;;;;;;;4.70;1.95;;;22.40;99.90;;;;;;4997937;28;20046;-58
2022/08/01 11:28:13;;;;;;;;;;;22.60;99.90;;;;;;4993412;28;20035;-58
2022/08/01 11:30:48;;;;;;;5.82;2.25;;;22.90;99.90;;;;;;4993636;28;20313;-58
2022/08/01 11:33:17;;;;;;;7.00;2.33;;;22.90;99.90;;;;;;4994920;28;20113;-58
2022/08/01 11:36:15;;;;;;;5.47;2.25;;;23.10;99.90;;;;;;4995345;28;20533;-58
2022/08/01 11:38:58;;;;;;;9.32;3.03;;;23.30;99.90;;;;;;4983890;28;20118;-59
2022/08/01 11:41:26;;;;;;;6.00;2.45;;;23.60;99.90;;;;;;4991526;28;20659;-58
2022/08/01 11:44:05;;;;;;;4.88;2.05;;;24.00;99.90;;;;;;4990082;28;20049;-58
2022/08/01 11:46:56;;;;;;;3.70;2.08;;;24.00;99.90;;;;;;5001120;28;20030;-58
2022/08/01 11:49:44;;;;;;;5.03;2.50;;;24.00;99.90;;;;;;4990750;28;20108;-58
2022/08/01 11:52:09;;;;;;;3.88;2.13;;;23.90;99.90;;;;;;4995517;28;20042;-57
2022/08/01 11:54:36;;;;;;;3.45;2.00;;;23.90;99.90;;;;;;5001279;28;20022;-57
2022/08/01 11:57:09;;;;;;;3.42;2.28;;;24.30;99.90;;;;;;4990916;28;20145;-57
2022/08/01 12:00:01;;;;;;;4.18;1.95;;;24.70;99.90;;;;;;4991821;28;20120;-58
2022/08/01 12:02:29;;;;;;;4.78;1.90;;;24.80;99.90;;;;;;4981539;28;20050;-57
2022/08/01 12:05:03;;;;;;;4.43;2.05;;;25.50;99.90;;;;;;4994281;28;20030;-57
2022/08/01 12:07:31;;;;;;;8.32;2.97;;;25.90;99.90;;;;;;4998646;28;20034;-58
2022/08/01 12:10:04;;;;;;;6.55;2.35;;;25.60;99.90;;;;;;4998783;28;20022;-57
2022/08/01 12:12:32;;;;;;;4.32;2.15;;;25.70;99.90;;;;;;4991515;28;20030;-57
2022/08/01 12:15:08;;;;;;;6.55;2.67;;;26.20;99.90;;;;;;4990131;28;20423;-57
2022/08/01 12:17:36;;;;;;;5.10;2.08;;;26.60;99.90;;;;;;4991872;28;20049;-57
2022/08/01 12:20:04;;;;;;;4.95;2.53;;;26.30;99.90;;;;;;4986178;28;20401;-58
2022/08/01 12:22:31;;;;;;;3.97;2.17;;;26.20;99.90;;;;;;4989596;28;20512;-58
2022/08/01 12:25:09;;;;;;;5.15;2.50;;;26.20;99.90;;;;;;4987989;28;20037;-58
2022/08/01 12:27:35;;;;;;;6.57;2.40;;;26.40;99.90;;;;;;4988292;28;20034;-59
2022/08/01 12:30:04;;;;;;;6.10;2.67;;;26.10;99.90;;;;;;4979220;28;20022;-57
2022/08/01 12:32:32;;;;;;;2.63;1.83;;;26.30;99.90;;;;;;4990874;28;20121;-57
2022/08/01 12:35:05;;;;;;;4.68;2.35;;;26.40;99.90;;;;;;4991060;28;20022;-57
2022/08/01 12:37:34;;;;;;;5.65;3.17;;;26.60;99.90;;;;;;4997410;28;20125;-57
2022/08/01 12:40:01;;;;;;;4.88;2.75;;;26.80;99.90;;;;;;4992914;28;20068;-57
2022/08/01 12:42:27;;;;;;;5.97;2.67;;;26.70;99.90;;;;;;4992564;28;20044;-57
2022/08/01 12:44:54;;;;;;;7.07;2.72;;;26.20;99.90;;;;;;4991549;28;20124;-57
2022/08/01 12:47:21;;;;;;;8.15;2.80;;;25.90;99.90;;;;;;4991405;28;20046;-59
2022/08/01 12:49:47;;;;;;;8.45;2.45;;;25.40;99.90;;;;;;4991725;28;20077;-58
2022/08/01 12:52:14;;;;;;;6.28;2.47;;;26.00;99.90;;;;;;4996687;28;20026;-58
2022/08/01 12:55:08;;;;;;;5.88;3.42;;;26.60;99.90;;;;;;4994523;28;20030;-58